This is the latest recevied weather packets stored in our database for station/object K7SPS-10. If no packets are shown the sender has not sent any weather packets the latest 10 day(s).
| Time | Temp. | Humidity | Pressure | Rain* | Wind** | Luminosity | Snow |
|---|---|---|---|---|---|---|---|
| 1777818790 | 10.56° C | 65% | 1015.4 hPa | 0 mm | - | 108 W/m² | - |
| 1777818487 | 11.11° C | 65% | 1015.4 hPa | 0 mm | - | 144 W/m² | - |
| 1777818184 | 11.67° C | 62% | 1015.2 hPa | 0 mm | - | 92 W/m² | - |
| 1777817880 | 12.22° C | 62% | 1015.3 hPa | 0 mm | - | 134 W/m² | - |
| 1777817578 | 11.67° C | 69% | 1015.3 hPa | 0 mm | - | 138 W/m² | - |
| 1777817274 | 10.56° C | 71% | 1015.4 hPa | 0 mm | - | 124 W/m² | - |
| 1777816971 | 10.56° C | 70% | 1015.2 hPa | 0 mm | - | 113 W/m² | - |
| 1777816668 | 10.56° C | 71% | 1015.1 hPa | 0 mm | - | 101 W/m² | - |
| 1777816365 | 10° C | 74% | 1015.2 hPa | 0 mm | - | 92 W/m² | - |
| 1777816063 | 9.44° C | 75% | 1015.1 hPa | 0 mm | - | 85 W/m² | - |
| 1777815760 | 9.44° C | 76% | 1015.2 hPa | 0 mm | - | 80 W/m² | - |
| 1777815457 | 8.89° C | 78% | 1015.2 hPa | 0 mm | - | 69 W/m² | - |
| 1777815155 | 7.78° C | 81% | 1015.1 hPa | 0 mm | - | 52 W/m² | - |
| 1777814851 | 7.78° C | 84% | 1015.1 hPa | 0 mm | - | 42 W/m² | - |
| 1777814547 | 7.78° C | 85% | 1015 hPa | 0 mm | - | 36 W/m² | - |
| 1777814244 | 6.67° C | 87% | 1014.9 hPa | 0 mm | - | 31 W/m² | - |
| 1777813941 | 6.67° C | 89% | 1015 hPa | 0 mm | - | 25 W/m² | - |
| 1777813639 | 6.67° C | 91% | 1014.8 hPa | 0 mm | - | 21 W/m² | - |
| 1777813336 | 6.11° C | 91% | 1015 hPa | 0 mm | - | 17 W/m² | - |
| 1777813033 | 6.11° C | 90% | 1014.8 hPa | 0 mm | - | 12 W/m² | - |
| 1777812731 | 6.11° C | 90% | 1014.7 hPa | 0 mm | - | 9 W/m² | - |
| 1777812427 | 6.11° C | 89% | 1014.8 hPa | 0 mm | - | 7 W/m² | - |
| 1777812125 | 6.11° C | 86% | 1014.9 hPa | 0 mm | - | 5 W/m² | - |
| 1777811824 | 6.11° C | 86% | 1014.8 hPa | 0 mm | - | 3 W/m² | - |
| 1777811521 | 6.11° C | 83% | 1014.9 hPa | 0 mm | - | 2 W/m² | - |
* Rain latest hour (hover to see other rain measurements)
** Current wind speed in m/s (hover to see current wind gust speed)